Time;durP1;ratioP1;P1;durP2;ratioP2;P2;SDS_P1;SDS_P2;PMS_P1;PMS_P2;Temp;Humidity;BMP_temperature;BMP_pressure;BME280_temperature;BME280_humidity;BME280_pressure;Samples;Min_cycle;Max_cycle;Signal;HPM_P1;HPM_P2
2022/10/11 00:02:16;;;;;;;1.67;1.50;;;17.30;99.90;;;;;;5013352;28;20038;-80
2022/10/11 00:04:41;;;;;;;1.80;1.45;;;17.30;99.90;;;;;;5013302;28;20507;-80
2022/10/11 00:07:07;;;;;;;1.63;1.50;;;17.40;99.90;;;;;;5013135;28;20038;-80
2022/10/11 00:09:33;;;;;;;1.80;1.65;;;17.30;99.90;;;;;;5013446;28;20553;-80
2022/10/11 00:11:59;;;;;;;2.03;1.80;;;17.20;99.90;;;;;;5013382;28;20084;-80
2022/10/11 00:14:25;;;;;;;1.50;1.40;;;17.20;99.90;;;;;;5028174;28;20022;-80
2022/10/11 00:16:52;;;;;;;1.92;1.50;;;17.20;99.90;;;;;;5013218;28;20025;-80
2022/10/11 00:19:19;;;;;;;1.65;1.52;;;17.20;99.90;;;;;;5013527;28;20032;-80
2022/10/11 00:21:45;;;;;;;4.78;1.70;;;17.30;99.90;;;;;;5013282;28;20579;-80
2022/10/11 00:24:11;;;;;;;2.00;1.50;;;17.20;99.90;;;;;;5028367;28;20030;-80
2022/10/11 00:26:37;;;;;;;1.50;1.40;;;17.20;99.90;;;;;;5028212;28;20080;-80
2022/10/11 00:29:03;;;;;;;1.30;1.15;;;17.10;99.90;;;;;;5013352;28;20022;-80
2022/10/11 00:31:29;;;;;;;1.98;1.60;;;17.10;99.90;;;;;;5028300;28;20407;-79
2022/10/11 00:33:54;;;;;;;1.98;1.55;;;17.00;99.90;;;;;;5028242;28;20018;-80
2022/10/11 00:36:21;;;;;;;1.63;1.52;;;17.00;99.90;;;;;;5012790;28;20022;-79
2022/10/11 00:38:47;;;;;;;1.63;1.52;;;17.10;99.90;;;;;;5012718;28;20033;-80
2022/10/11 00:41:14;;;;;;;1.67;1.58;;;17.10;99.90;;;;;;5028282;28;20026;-79
2022/10/11 00:43:40;;;;;;;1.90;1.70;;;17.20;99.90;;;;;;5012945;28;20021;-80
2022/10/11 00:46:27;;;;;;;2.10;1.90;;;17.10;99.90;;;;;;5015730;28;20026;-80
2022/10/11 00:49:01;;;;;;;2.50;1.70;;;17.10;99.90;;;;;;5011257;28;20030;-79
2022/10/11 00:51:40;;;;;;;2.10;1.90;;;17.30;99.90;;;;;;5027465;28;20014;-80
2022/10/11 00:54:10;;;;;;;1.60;1.50;;;17.20;99.90;;;;;;5011867;28;20048;-80
2022/10/11 00:56:38;;;;;;;2.15;1.95;;;17.20;99.90;;;;;;5012464;28;20026;-80
2022/10/11 00:59:10;;;;;;;1.60;1.50;;;17.20;99.90;;;;;;5022224;28;20376;-80
2022/10/11 01:01:36;;;;;;;1.80;1.70;;;17.20;99.90;;;;;;5004015;28;20088;-80
2022/10/11 01:04:05;;;;;;;1.55;1.48;;;17.30;99.90;;;;;;5012211;28;20491;-80
2022/10/11 01:06:32;;;;;;;2.05;1.88;;;17.30;99.90;;;;;;5012482;28;20106;-80
2022/10/11 01:08:58;;;;;;;1.42;1.35;;;17.30;99.90;;;;;;5012340;28;20026;-80
2022/10/11 01:11:26;;;;;;;1.75;1.65;;;17.10;99.90;;;;;;5027423;28;20096;-80
2022/10/11 01:14:11;;;;;;;1.85;1.75;;;17.10;99.90;;;;;;5012467;28;20040;-80
2022/10/11 01:17:11;;;;;;;2.75;1.60;;;16.90;99.90;;;;;;5011820;28;20030;-80
2022/10/11 01:20:01;;;;;;;1.90;1.70;;;16.90;99.90;;;;;;4990299;28;20220;-80
2022/10/11 01:22:52;;;;;;;2.20;1.83;;;17.00;99.90;;;;;;4990422;28;20058;-79
2022/10/11 01:25:26;;;;;;;2.33;1.83;;;17.00;99.90;;;;;;4990393;28;20121;-80
2022/10/11 01:27:52;;;;;;;2.30;1.80;;;17.00;99.90;;;;;;4989773;28;20042;-80
2022/10/11 01:30:33;;;;;;;3.53;2.03;;;17.20;99.90;;;;;;4990106;28;20057;-80
2022/10/11 01:33:19;;;;;;;2.50;2.22;;;17.20;99.90;;;;;;4989630;28;20489;-80
2022/10/11 01:35:53;;;;;;;2.40;2.20;;;17.10;99.90;;;;;;4989940;28;20034;-79
2022/10/11 01:38:36;;;;;;;2.65;2.10;;;17.10;99.90;;;;;;4989736;28;20031;-79
2022/10/11 01:41:17;;;;;;;3.80;2.00;;;17.10;99.90;;;;;;4989821;28;20030;-80
2022/10/11 01:43:44;;;;;;;2.88;2.30;;;17.20;99.90;;;;;;4990129;28;20042;-79
2022/10/11 01:46:11;;;;;;;2.10;1.90;;;17.30;99.90;;;;;;4989265;28;20144;-80
2022/10/11 01:48:57;;;;;;;2.33;2.03;;;17.30;99.90;;;;;;4989694;28;20038;-79
2022/10/11 01:52:06;;;;;;;1.95;1.75;;;17.30;99.90;;;;;;4989826;28;20022;-79
2022/10/11 01:55:08;;;;;;;3.40;1.92;;;17.40;99.90;;;;;;4951173;29;20077;-79
2022/10/11 01:58:04;;;;;;;1.60;1.50;;;17.40;99.90;;;;;;4934899;29;20062;-79
2022/10/11 02:00:40;;;;;;;2.03;1.92;;;17.40;99.90;;;;;;4945048;29;20063;-80
2022/10/11 02:03:24;;;;;;;2.47;2.20;;;17.30;99.90;;;;;;4950357;28;20028;-80
2022/10/11 02:06:04;;;;;;;3.30;2.25;;;17.30;99.90;;;;;;4934922;29;20043;-80
2022/10/11 02:08:56;;;;;;;2.28;1.90;;;17.30;99.90;;;;;;4950744;29;20035;-79
2022/10/11 02:11:27;;;;;;;2.53;1.80;;;17.20;99.90;;;;;;4950262;29;20031;-80
2022/10/11 02:14:09;;;;;;;2.67;2.47;;;17.30;99.90;;;;;;4935199;29;20078;-80
2022/10/11 02:16:43;;;;;;;;;;;17.30;99.90;;;;;;4950804;28;20114;-80
2022/10/11 02:19:12;;;;;;;2.45;2.05;;;17.30;99.90;;;;;;4951014;29;19942;-80
2022/10/11 02:21:41;;;;;;;2.13;1.92;;;17.40;99.90;;;;;;4966518;28;20057;-80
2022/10/11 02:24:15;;;;;;;2.38;1.90;;;17.40;99.90;;;;;;4950775;28;20098;-80
2022/10/11 02:26:45;;;;;;;1.67;1.58;;;17.30;99.90;;;;;;5014573;28;20053;-80
2022/10/11 02:29:14;;;;;;;2.05;1.73;;;17.40;99.90;;;;;;5011323;28;20105;-80
2022/10/11 02:31:42;;;;;;;1.77;1.67;;;17.40;99.90;;;;;;5011146;28;20018;-80
2022/10/11 02:34:16;;;;;;;2.55;1.80;;;17.30;99.90;;;;;;5011278;28;20028;-80
2022/10/11 02:36:49;;;;;;;1.77;1.67;;;17.30;99.90;;;;;;5011056;28;20041;-80
2022/10/11 02:39:24;;;;;;;2.38;2.17;;;17.30;99.90;;;;;;5010875;28;20034;-80
2022/10/11 02:41:52;;;;;;;2.40;2.20;;;17.30;99.90;;;;;;5011264;28;20026;-80
2022/10/11 02:44:31;;;;;;;3.67;2.22;;;17.30;99.90;;;;;;4997691;28;20104;-80
2022/10/11 02:46:59;;;;;;;2.10;2.00;;;17.30;99.90;;;;;;5021164;28;20026;-80
2022/10/11 02:49:27;;;;;;;2.00;1.90;;;17.30;99.90;;;;;;5009688;28;20120;-80
2022/10/11 02:51:57;;;;;;;2.25;2.05;;;17.30;99.90;;;;;;5026070;28;20022;-80
2022/10/11 02:54:25;;;;;;;2.10;1.85;;;17.20;99.90;;;;;;5010672;28;20065;-80
2022/10/11 02:56:50;;;;;;;2.72;2.00;;;17.30;99.90;;;;;;5010845;28;20072;-80
2022/10/11 02:59:16;;;;;;;2.17;1.60;;;17.20;99.90;;;;;;5010639;28;20026;-80
2022/10/11 03:01:42;;;;;;;2.13;1.92;;;17.20;99.90;;;;;;5010740;28;20044;-79
2022/10/11 03:04:08;;;;;;;2.45;1.70;;;17.10;99.90;;;;;;5010712;28;20046;-80
2022/10/11 03:06:33;;;;;;;2.55;1.80;;;17.10;99.90;;;;;;5011119;28;20492;-80
2022/10/11 03:08:59;;;;;;;2.25;2.00;;;17.10;99.90;;;;;;5009675;28;20037;-80
2022/10/11 03:11:25;;;;;;;1.70;1.60;;;17.10;99.90;;;;;;5025753;28;20514;-80
2022/10/11 03:13:50;;;;;;;2.70;1.95;;;17.20;99.90;;;;;;5010803;28;20026;-79
2022/10/11 03:16:16;;;;;;;1.83;1.70;;;17.10;99.90;;;;;;5012220;28;20034;-80
2022/10/11 03:18:42;;;;;;;2.03;1.92;;;17.10;99.90;;;;;;5014256;28;20514;-80
2022/10/11 03:21:07;;;;;;;2.03;1.83;;;17.20;99.90;;;;;;5014276;28;20044;-80
2022/10/11 03:23:33;;;;;;;1.80;1.70;;;17.20;99.90;;;;;;5014326;28;20093;-79
2022/10/11 03:25:59;;;;;;;1.73;1.63;;;17.10;99.90;;;;;;5014257;28;20568;-80
2022/10/11 03:28:24;;;;;;;1.95;1.70;;;17.00;99.90;;;;;;5014287;28;20407;-80
2022/10/11 03:30:51;;;;;;;2.17;1.55;;;17.00;99.90;;;;;;5014169;28;20430;-80
2022/10/11 03:33:16;;;;;;;3.00;1.70;;;16.90;99.90;;;;;;5014041;28;20133;-80
2022/10/11 03:35:46;;;;;;;3.38;1.95;;;17.00;99.90;;;;;;5013984;28;20050;-79
2022/10/11 03:38:15;;;;;;;2.13;1.95;;;17.10;99.90;;;;;;5029065;28;20026;-79
2022/10/11 03:40:42;;;;;;;1.80;1.70;;;17.10;99.90;;;;;;5014032;28;20029;-79
2022/10/11 03:43:08;;;;;;;2.35;2.13;;;17.10;99.90;;;;;;5012663;28;20108;-79
2022/10/11 03:45:34;;;;;;;2.53;1.70;;;17.00;99.90;;;;;;5013794;28;20042;-79
2022/10/11 03:48:00;;;;;;;1.90;1.80;;;17.00;99.90;;;;;;5013647;28;20080;-79
2022/10/11 03:50:26;;;;;;;2.05;1.85;;;17.00;99.90;;;;;;5013860;28;20031;-79
2022/10/11 03:52:52;;;;;;;1.50;1.38;;;16.90;99.90;;;;;;5013870;28;20038;-80
2022/10/11 03:55:17;;;;;;;1.70;1.60;;;16.80;99.90;;;;;;5028853;28;20026;-80
2022/10/11 03:57:43;;;;;;;1.75;1.65;;;16.80;99.90;;;;;;5013829;28;20061;-80
2022/10/11 04:00:09;;;;;;;2.10;1.67;;;16.80;99.90;;;;;;5013146;28;20034;-79
2022/10/11 04:02:35;;;;;;;1.98;1.80;;;16.80;99.90;;;;;;5013682;28;20072;-79
2022/10/11 04:05:01;;;;;;;1.70;1.60;;;16.60;99.90;;;;;;5012904;28;20038;-79
2022/10/11 04:07:28;;;;;;;2.75;1.95;;;16.50;99.90;;;;;;5013140;28;20068;-79
2022/10/11 04:09:53;;;;;;;1.70;1.60;;;16.40;99.90;;;;;;5013027;28;20079;-79
2022/10/11 04:12:19;;;;;;;3.80;2.10;;;16.20;99.90;;;;;;5012595;28;20026;-80
2022/10/11 04:14:45;;;;;;;1.70;1.60;;;16.20;99.90;;;;;;5013622;28;20105;-79
2022/10/11 04:17:10;;;;;;;2.40;1.65;;;16.20;99.90;;;;;;5013506;28;20526;-79
2022/10/11 04:19:36;;;;;;;2.22;2.03;;;16.30;99.90;;;;;;5028328;28;20137;-79
2022/10/11 04:22:03;;;;;;;2.47;2.08;;;16.10;99.90;;;;;;5028223;28;20042;-79
2022/10/11 04:24:29;;;;;;;2.20;2.00;;;16.00;99.90;;;;;;5013025;28;20525;-79
2022/10/11 04:26:55;;;;;;;2.50;1.80;;;16.00;99.90;;;;;;5027854;28;20029;-79
2022/10/11 04:29:21;;;;;;;2.40;2.20;;;16.00;99.90;;;;;;5013246;28;20030;-79
2022/10/11 04:31:46;;;;;;;1.90;1.80;;;16.00;99.90;;;;;;5028196;28;20140;-79
2022/10/11 04:34:12;;;;;;;3.17;2.00;;;16.10;99.90;;;;;;5013155;28;20547;-79
2022/10/11 04:36:38;;;;;;;2.03;1.92;;;16.00;99.90;;;;;;5012888;28;20495;-79
2022/10/11 04:39:05;;;;;;;2.10;1.92;;;16.00;99.90;;;;;;5012959;28;20475;-79
2022/10/11 04:41:32;;;;;;;2.10;1.98;;;16.10;99.90;;;;;;5012650;28;20022;-79
2022/10/11 04:43:58;;;;;;;2.13;1.83;;;16.00;99.90;;;;;;5012857;28;20109;-79
2022/10/11 04:46:24;;;;;;;1.90;1.80;;;16.00;99.90;;;;;;5012906;28;20109;-79
2022/10/11 04:48:50;;;;;;;1.80;1.70;;;16.00;99.90;;;;;;5012966;28;20018;-79
2022/10/11 04:51:16;;;;;;;1.63;1.52;;;16.00;99.90;;;;;;5012640;28;20080;-79
2022/10/11 04:53:42;;;;;;;2.00;1.90;;;16.00;99.90;;;;;;5012457;28;20161;-79
2022/10/11 04:56:10;;;;;;;1.75;1.40;;;15.90;99.90;;;;;;5012527;28;20099;-79
2022/10/11 04:58:39;;;;;;;2.08;1.88;;;15.90;99.90;;;;;;5012648;28;20108;-79
2022/10/11 05:01:05;;;;;;;3.90;1.73;;;15.90;99.90;;;;;;5012522;28;20090;-79
2022/10/11 05:03:30;;;;;;;2.65;2.03;;;15.90;99.90;;;;;;5012142;28;20046;-79
2022/10/11 05:05:56;;;;;;;2.10;1.90;;;15.80;99.90;;;;;;5012437;28;20522;-79
2022/10/11 05:08:22;;;;;;;2.15;1.80;;;15.80;99.90;;;;;;5012129;28;20037;-79
2022/10/11 05:10:56;;;;;;;1.90;1.80;;;15.80;99.90;;;;;;5012395;28;20018;-79
2022/10/11 05:13:22;;;;;;;3.03;2.25;;;15.70;99.90;;;;;;5012326;28;20022;-79
2022/10/11 05:15:48;;;;;;;2.05;1.95;;;15.80;99.90;;;;;;5012069;28;20030;-79
2022/10/11 05:18:14;;;;;;;1.70;1.60;;;15.70;99.90;;;;;;5011979;28;20136;-79
2022/10/11 05:20:39;;;;;;;1.92;1.75;;;15.70;99.90;;;;;;5012492;28;20033;-79
2022/10/11 05:23:05;;;;;;;2.17;1.98;;;15.70;99.90;;;;;;5011880;28;20111;-78
2022/10/11 05:25:31;;;;;;;2.35;2.10;;;15.70;99.90;;;;;;5012058;28;20030;-79
2022/10/11 05:27:57;;;;;;;2.10;1.85;;;15.60;99.90;;;;;;5011729;28;20030;-79
2022/10/11 05:30:22;;;;;;;2.25;2.00;;;15.60;99.90;;;;;;5012072;28;20499;-79
2022/10/11 05:32:48;;;;;;;2.75;1.83;;;15.60;99.90;;;;;;5011914;28;20057;-79
2022/10/11 05:35:14;;;;;;;1.60;1.50;;;15.60;99.90;;;;;;5011771;28;20033;-79
2022/10/11 05:37:39;;;;;;;2.05;1.90;;;15.50;99.90;;;;;;5011603;28;20034;-79
2022/10/11 05:40:06;;;;;;;2.10;1.77;;;15.60;99.90;;;;;;5011218;28;20400;-79
2022/10/11 05:42:32;;;;;;;1.63;1.52;;;15.60;99.90;;;;;;5011602;28;20034;-79
2022/10/11 05:44:57;;;;;;;3.78;1.63;;;15.40;99.90;;;;;;5012062;28;20022;-79
2022/10/11 05:47:23;;;;;;;2.03;1.83;;;15.50;99.90;;;;;;5011537;28;20550;-79
2022/10/11 05:49:49;;;;;;;2.15;2.00;;;15.40;99.90;;;;;;5011935;28;20026;-79
2022/10/11 05:52:18;;;;;;;1.95;1.77;;;15.30;99.90;;;;;;5011294;28;20483;-79
2022/10/11 05:54:44;;;;;;;2.00;1.88;;;15.30;99.90;;;;;;5011357;28;20014;-79
2022/10/11 05:57:10;;;;;;;1.90;1.80;;;15.30;99.90;;;;;;5011571;28;20109;-79
2022/10/11 05:59:36;;;;;;;1.88;1.77;;;15.30;99.90;;;;;;5011394;28;20037;-79
2022/10/11 06:02:01;;;;;;;1.70;1.60;;;15.30;99.90;;;;;;5011280;28;20061;-79
2022/10/11 06:04:27;;;;;;;1.80;1.70;;;15.30;99.90;;;;;;5011471;28;20036;-79
2022/10/11 06:06:53;;;;;;;2.53;2.03;;;15.30;99.90;;;;;;5026300;28;20030;-79
2022/10/11 06:09:18;;;;;;;1.70;1.60;;;15.30;99.90;;;;;;5010932;28;20022;-79
2022/10/11 06:11:44;;;;;;;2.28;1.60;;;15.30;99.90;;;;;;5010361;28;20479;-79
2022/10/11 06:14:10;;;;;;;1.80;1.70;;;15.30;99.90;;;;;;5010867;28;20029;-79
2022/10/11 06:16:36;;;;;;;2.67;1.98;;;15.20;99.90;;;;;;5011173;28;20025;-79
2022/10/11 06:19:03;;;;;;;1.92;1.60;;;15.20;99.90;;;;;;5011549;28;20387;-79
2022/10/11 06:21:29;;;;;;;2.00;1.90;;;15.40;99.90;;;;;;5010467;28;20049;-79
2022/10/11 06:23:55;;;;;;;1.88;1.77;;;15.40;99.90;;;;;;5010524;28;20024;-79
2022/10/11 06:26:20;;;;;;;2.50;1.88;;;15.50;99.90;;;;;;5010782;28;20018;-79
2022/10/11 06:28:46;;;;;;;1.90;1.80;;;15.60;99.90;;;;;;5011146;28;20032;-79
2022/10/11 06:31:12;;;;;;;2.22;2.00;;;15.60;99.90;;;;;;5010776;28;20034;-78
2022/10/11 06:33:38;;;;;;;1.67;1.58;;;15.70;99.90;;;;;;5011335;28;20045;-81
2022/10/11 06:36:10;;;;;;;2.42;2.10;;;15.80;99.90;;;;;;5010670;28;20480;-79
2022/10/11 06:38:36;;;;;;;1.92;1.75;;;15.90;99.90;;;;;;5008311;28;20026;-79
2022/10/11 06:41:29;;;;;;;2.20;2.00;;;15.90;99.90;;;;;;5010416;28;20026;-79
2022/10/11 06:43:55;;;;;;;2.40;2.20;;;15.80;99.90;;;;;;5007383;28;20137;-79
2022/10/11 06:46:23;;;;;;;4.22;2.55;;;15.90;99.90;;;;;;5010209;28;20500;-80
2022/10/11 06:48:49;;;;;;;2.75;2.55;;;15.70;99.90;;;;;;5025857;28;20069;-80
2022/10/11 06:51:18;;;;;;;3.05;2.75;;;15.90;99.90;;;;;;5013656;28;20026;-80
2022/10/11 06:53:48;;;;;;;2.83;2.28;;;16.00;99.90;;;;;;5014756;28;20163;-80
2022/10/11 06:56:14;;;;;;;3.33;2.70;;;16.10;99.90;;;;;;5009166;28;20033;-81
2022/10/11 06:58:40;;;;;;;4.20;2.70;;;16.00;99.90;;;;;;4999943;28;20411;-81
2022/10/11 07:01:09;;;;;;;2.92;2.63;;;16.10;99.90;;;;;;5013756;28;20502;-81
2022/10/11 07:03:35;;;;;;;3.08;2.75;;;16.10;99.90;;;;;;5013217;28;20374;-81
2022/10/11 07:06:05;;;;;;;3.42;2.83;;;16.20;99.90;;;;;;5012014;28;20495;-81
2022/10/11 07:08:31;;;;;;;2.75;2.33;;;16.20;99.90;;;;;;5013046;28;20028;-80
2022/10/11 07:11:02;;;;;;;3.00;2.70;;;16.30;99.90;;;;;;5012926;28;20022;-80
2022/10/11 07:13:28;;;;;;;2.55;2.33;;;16.40;99.90;;;;;;5000384;28;20105;-78
2022/10/11 07:15:54;;;;;;;2.95;2.40;;;16.40;99.90;;;;;;5013330;28;20165;-78
2022/10/11 07:18:19;;;;;;;2.40;2.20;;;16.40;99.90;;;;;;5000060;28;20026;-78
2022/10/11 07:20:45;;;;;;;2.97;2.67;;;16.40;99.90;;;;;;5012297;28;20026;-79
2022/10/11 07:23:11;;;;;;;3.03;2.58;;;16.30;99.90;;;;;;5012774;28;20522;-79
2022/10/11 07:25:37;;;;;;;2.45;2.25;;;16.30;99.90;;;;;;5013323;28;20045;-78
2022/10/11 07:28:03;;;;;;;2.70;2.50;;;16.40;99.90;;;;;;5013189;28;20517;-78
2022/10/11 07:30:28;;;;;;;2.70;2.50;;;16.50;99.90;;;;;;5013548;28;20026;-78
2022/10/11 07:32:54;;;;;;;2.47;2.28;;;16.40;99.90;;;;;;5012742;28;20096;-78
2022/10/11 07:35:20;;;;;;;2.50;2.30;;;16.60;99.90;;;;;;5012761;28;20564;-78
2022/10/11 07:37:45;;;;;;;2.13;1.92;;;16.60;99.90;;;;;;5013189;28;20065;-77
2022/10/11 07:40:11;;;;;;;2.90;2.25;;;16.60;99.90;;;;;;5012103;28;20021;-78
2022/10/11 07:42:37;;;;;;;2.33;2.15;;;16.50;99.90;;;;;;5028350;28;20037;-78
2022/10/11 07:45:03;;;;;;;2.50;2.30;;;16.40;99.90;;;;;;5011914;28;20431;-78
2022/10/11 07:47:29;;;;;;;2.80;2.33;;;16.50;99.90;;;;;;5012893;28;20029;-78
2022/10/11 07:49:54;;;;;;;3.20;2.63;;;16.40;99.90;;;;;;5012546;28;20087;-78
2022/10/11 07:52:20;;;;;;;2.90;2.60;;;16.60;99.90;;;;;;5027773;28;20029;-78
2022/10/11 07:54:49;;;;;;;3.85;2.63;;;16.70;99.90;;;;;;5026028;28;20022;-78
2022/10/11 07:57:15;;;;;;;3.10;2.80;;;16.60;99.90;;;;;;5012692;28;20026;-78
2022/10/11 07:59:42;;;;;;;3.20;2.90;;;16.50;99.90;;;;;;5012808;28;20022;-78
2022/10/11 08:02:10;;;;;;;3.22;2.92;;;16.50;99.90;;;;;;5011706;28;20108;-78
2022/10/11 08:04:36;;;;;;;3.10;2.80;;;16.50;99.90;;;;;;5012739;28;20036;-78
2022/10/11 08:07:02;;;;;;;3.03;2.67;;;16.50;99.90;;;;;;5012565;28;20403;-78
2022/10/11 08:09:29;;;;;;;3.13;2.83;;;16.60;99.90;;;;;;5027482;28;20029;-78
2022/10/11 08:11:54;;;;;;;3.20;2.90;;;16.70;99.90;;;;;;5012602;28;20099;-78
2022/10/11 08:14:20;;;;;;;2.97;2.67;;;16.70;99.90;;;;;;5012332;28;20050;-78
2022/10/11 08:16:46;;;;;;;2.63;2.35;;;16.80;99.90;;;;;;5012002;28;20167;-78
2022/10/11 08:19:12;;;;;;;2.50;2.30;;;16.80;99.90;;;;;;5012373;28;20457;-78
2022/10/11 08:21:38;;;;;;;2.75;2.40;;;16.80;99.90;;;;;;5011495;28;20478;-78
2022/10/11 08:24:05;;;;;;;3.42;2.88;;;17.00;99.90;;;;;;5027291;28;20487;-78
2022/10/11 08:26:31;;;;;;;3.05;2.80;;;17.00;99.90;;;;;;5025512;28;20034;-78
2022/10/11 08:29:01;;;;;;;3.35;2.50;;;16.90;99.90;;;;;;5011874;28;20113;-78
2022/10/11 08:31:26;;;;;;;3.47;2.65;;;17.00;99.90;;;;;;5009099;28;20033;-78
2022/10/11 08:33:52;;;;;;;3.28;2.90;;;17.00;99.90;;;;;;5007569;28;20030;-78
2022/10/11 08:36:18;;;;;;;4.82;3.15;;;17.10;99.90;;;;;;5013462;28;20483;-78
2022/10/11 08:38:43;;;;;;;3.72;2.83;;;17.10;99.90;;;;;;5015457;28;20033;-78
2022/10/11 08:41:46;;;;;;;5.50;3.20;;;17.20;99.90;;;;;;5010989;28;20022;-78
2022/10/11 08:44:34;;;;;;;4.75;3.42;;;16.80;99.90;;;;;;4998665;28;20156;-78
2022/10/11 08:47:35;;;;;;;4.28;3.80;;;16.80;99.90;;;;;;5007968;28;20034;-78
2022/10/11 08:50:02;;;;;;;5.15;3.83;;;16.80;99.90;;;;;;5007475;28;20107;-78
2022/10/11 08:52:54;;;;;;;5.13;3.60;;;16.90;99.90;;;;;;5011412;28;20022;-78
2022/10/11 08:55:46;;;;;;;4.88;3.67;;;16.80;99.90;;;;;;4971916;28;20057;-78
2022/10/11 08:58:16;;;;;;;4.22;3.30;;;17.20;99.90;;;;;;4989034;28;20073;-78
2022/10/11 09:00:43;;;;;;;3.80;3.13;;;17.20;99.90;;;;;;4979748;28;20069;-78
2022/10/11 09:03:36;;;;;;;3.20;2.92;;;17.20;99.90;;;;;;4988987;28;20113;-78
2022/10/11 09:06:27;;;;;;;4.60;3.70;;;17.30;99.90;;;;;;4988869;28;20066;-78
2022/10/11 09:08:53;;;;;;;;;;;17.30;99.90;;;;;;4959817;28;20054;-78
2022/10/11 09:11:44;;;;;;;4.05;3.40;;;17.40;99.90;;;;;;4969002;28;20303;-78
2022/10/11 09:14:10;;;;;;;4.65;3.83;;;17.30;99.90;;;;;;4948490;28;20280;-78
2022/10/11 09:16:38;;;;;;;5.80;4.05;;;17.40;99.90;;;;;;4955882;28;20428;-78
2022/10/11 09:19:31;;;;;;;5.57;4.10;;;17.20;99.90;;;;;;4961538;28;20047;-78
2022/10/11 09:22:35;;;;;;;4.57;4.18;;;17.30;99.90;;;;;;4955058;28;20520;-79
2022/10/11 09:25:10;;;;;;;5.07;3.80;;;17.40;99.90;;;;;;4965571;28;20030;-79
2022/10/11 09:27:48;;;;;;;4.45;4.05;;;17.30;99.90;;;;;;4963499;28;20047;-79
2022/10/11 09:30:17;;;;;;;6.00;4.50;;;17.30;99.90;;;;;;4959107;28;20026;-80
2022/10/11 09:32:57;;;;;;;4.47;4.07;;;17.40;99.90;;;;;;4989396;28;20515;-79
2022/10/11 09:35:23;;;;;;;6.00;4.50;;;17.40;99.90;;;;;;5006990;28;20029;-80
2022/10/11 09:37:57;;;;;;;6.97;4.60;;;17.40;99.90;;;;;;5007500;28;20474;-80
2022/10/11 09:40:29;;;;;;;3.95;3.65;;;17.60;99.90;;;;;;4989325;28;20107;-80
2022/10/11 09:42:55;;;;;;;4.00;3.70;;;17.60;99.90;;;;;;5006312;28;20132;-80
2022/10/11 09:45:22;;;;;;;4.25;3.85;;;17.70;99.90;;;;;;5003214;28;20492;-80
2022/10/11 09:47:50;;;;;;;4.30;3.70;;;17.80;99.90;;;;;;5010102;28;20030;-79
2022/10/11 09:50:24;;;;;;;4.00;3.60;;;17.70;99.90;;;;;;5009235;28;20030;-79
2022/10/11 09:52:53;;;;;;;4.40;3.38;;;17.80;99.90;;;;;;5009937;28;20017;-79
2022/10/11 09:55:52;;;;;;;5.65;3.28;;;17.80;99.90;;;;;;5009671;28;20037;-79
2022/10/11 09:58:31;;;;;;;5.18;4.03;;;17.90;99.90;;;;;;5009856;28;20185;-79
2022/10/11 10:01:00;;;;;;;4.47;3.55;;;18.10;99.90;;;;;;5001754;28;20030;-79
2022/10/11 10:03:34;;;;;;;4.47;3.40;;;18.20;99.90;;;;;;5010269;28;20026;-79
2022/10/11 10:06:12;;;;;;;5.03;4.53;;;18.30;99.90;;;;;;5010130;28;20502;-79
2022/10/11 10:08:37;;;;;;;6.28;4.68;;;18.30;99.90;;;;;;5010058;28;20092;-80
2022/10/11 10:11:04;;;;;;;5.93;4.35;;;18.50;99.90;;;;;;5009518;28;20026;-80
2022/10/11 10:13:39;;;;;;;6.05;4.63;;;18.50;99.90;;;;;;5010160;28;20128;-80
2022/10/11 10:16:10;;;;;;;7.28;4.85;;;18.50;99.90;;;;;;5009598;28;20025;-80
2022/10/11 10:18:42;;;;;;;5.53;4.95;;;18.30;99.90;;;;;;5009934;28;20033;-80
2022/10/11 10:21:13;;;;;;;5.72;4.90;;;18.50;99.90;;;;;;5024287;28;20034;-80
2022/10/11 10:23:40;;;;;;;7.65;4.53;;;18.90;99.90;;;;;;5009503;28;20030;-79
2022/10/11 10:26:14;;;;;;;5.82;4.88;;;18.60;99.90;;;;;;5009106;28;20499;-80
2022/10/11 10:29:15;;;;;;;4.80;4.30;;;18.60;99.90;;;;;;5009719;28;20030;-80
2022/10/11 10:31:46;;;;;;;5.00;4.40;;;18.80;99.90;;;;;;5003206;28;20022;-80
2022/10/11 10:34:21;;;;;;;5.75;4.75;;;18.60;99.90;;;;;;5009558;28;20496;-80
2022/10/11 10:36:54;;;;;;;5.85;5.13;;;18.50;99.90;;;;;;5009185;28;20037;-80
2022/10/11 10:39:41;;;;;;;6.47;4.65;;;18.70;99.90;;;;;;5007455;28;20027;-79
2022/10/11 10:42:16;;;;;;;4.78;4.28;;;19.00;99.90;;;;;;5023483;28;20049;-80
2022/10/11 10:44:44;;;;;;;4.82;4.32;;;19.20;99.90;;;;;;5011233;28;20037;-80
2022/10/11 10:47:39;;;;;;;3.90;3.60;;;19.30;99.90;;;;;;5011950;28;20032;-79
2022/10/11 10:50:20;;;;;;;6.55;4.40;;;19.40;99.90;;;;;;5008862;28;20040;-80
2022/10/11 10:52:57;;;;;;;5.30;4.25;;;19.20;99.90;;;;;;5009144;28;20156;-81
2022/10/11 10:55:32;;;;;;;4.80;3.85;;;19.30;99.90;;;;;;5009106;28;20022;-81
2022/10/11 10:58:24;;;;;;;4.05;3.65;;;19.40;99.90;;;;;;5008915;28;20037;-80
2022/10/11 11:00:54;;;;;;;4.78;4.00;;;19.50;99.90;;;;;;5007688;28;20026;-80
2022/10/11 11:03:35;;;;;;;4.15;3.75;;;19.60;99.90;;;;;;5009487;28;20026;-80
2022/10/11 11:06:08;;;;;;;4.30;3.90;;;19.50;99.90;;;;;;5009877;28;20076;-80
2022/10/11 11:09:01;;;;;;;3.90;3.60;;;19.40;99.90;;;;;;5009356;28;20325;-80
2022/10/11 11:11:54;;;;;;;4.63;3.72;;;19.50;99.90;;;;;;5009484;28;20031;-80
2022/10/11 11:14:38;;;;;;;6.18;3.63;;;19.60;99.90;;;;;;5009562;28;20046;-80
2022/10/11 11:17:16;;;;;;;4.40;3.20;;;19.60;99.90;;;;;;5024345;28;20037;-80
2022/10/11 11:20:07;;;;;;;3.92;3.10;;;19.90;99.90;;;;;;5009639;28;20037;-80
2022/10/11 11:23:01;;;;;;;3.15;2.85;;;20.10;99.90;;;;;;4991497;28;20050;-81
2022/10/11 11:25:47;;;;;;;7.28;3.75;;;20.30;99.90;;;;;;5009173;28;20087;-80
2022/10/11 11:28:36;;;;;;;7.13;4.28;;;20.30;99.90;;;;;;5009058;28;20026;-80
2022/10/11 11:31:12;;;;;;;7.75;4.30;;;20.20;99.90;;;;;;5024276;28;20030;-80
2022/10/11 11:34:02;;;;;;;7.43;4.82;;;20.30;99.90;;;;;;5009110;28;20032;-80
2022/10/11 11:36:56;;;;;;;8.93;4.47;;;20.50;99.90;;;;;;4999337;28;20026;-80
2022/10/11 11:39:34;;;;;;;4.55;4.00;;;20.30;99.90;;;;;;5012702;28;20014;-80
2022/10/11 11:42:25;;;;;;;7.97;4.38;;;20.50;99.90;;;;;;5012318;28;20029;-81
2022/10/11 11:44:51;;;;;;;5.93;3.90;;;20.60;99.90;;;;;;5011387;28;20032;-81
2022/10/11 11:47:34;;;;;;;4.85;4.03;;;20.60;99.90;;;;;;5012657;28;20327;-81
2022/10/11 11:50:21;;;;;;;7.00;4.10;;;20.70;99.90;;;;;;5012656;28;20018;-80
2022/10/11 11:53:03;;;;;;;4.07;3.50;;;20.80;99.90;;;;;;5002281;28;20026;-81
2022/10/11 11:55:59;;;;;;;3.97;3.03;;;20.90;99.90;;;;;;5012332;28;20274;-80
2022/10/11 11:58:34;;;;;;;3.83;3.10;;;20.80;99.90;;;;;;5027726;28;20022;-81
2022/10/11 12:01:15;;;;;;;6.78;3.92;;;20.90;99.90;;;;;;5011928;28;20083;-80
2022/10/11 12:03:46;;;;;;;4.47;3.25;;;20.70;99.90;;;;;;5012851;28;20033;-81
2022/10/11 12:06:12;;;;;;;;;;;20.70;99.90;;;;;;5011495;28;20037;-81
2022/10/11 12:08:46;;;;;;;3.55;3.10;;;20.70;99.90;;;;;;5012208;28;19909;-81
2022/10/11 12:11:35;;;;;;;3.85;3.20;;;20.70;99.90;;;;;;5011854;28;20504;-81
2022/10/11 12:14:31;;;;;;;4.03;3.45;;;20.50;99.90;;;;;;5024948;28;20519;-81
2022/10/11 12:17:17;;;;;;;3.38;3.08;;;20.50;99.90;;;;;;5009551;28;20499;-81
2022/10/11 12:20:03;;;;;;;4.88;2.97;;;20.60;99.90;;;;;;5011911;28;20022;-80
2022/10/11 12:22:29;;;;;;;3.70;2.65;;;20.60;99.90;;;;;;5011179;28;20053;-80
2022/10/11 12:24:57;;;;;;;5.93;3.25;;;20.60;99.90;;;;;;5011490;28;20026;-81
2022/10/11 12:27:41;;;;;;;3.53;2.83;;;20.50;99.90;;;;;;5011328;28;20101;-81
2022/10/11 12:30:46;;;;;;;5.22;2.70;;;20.60;99.90;;;;;;5010294;28;20561;-81
2022/10/11 12:33:30;;;;;;;2.42;2.22;;;20.70;99.90;;;;;;5000076;28;20022;-81
2022/10/11 12:35:58;;;;;;;3.17;2.65;;;20.70;99.90;;;;;;5026712;28;20535;-81
2022/10/11 12:38:32;;;;;;;3.20;2.90;;;20.60;99.90;;;;;;5012104;28;20022;-80
2022/10/11 12:41:24;;;;;;;5.05;3.45;;;20.60;99.90;;;;;;5010549;28;20511;-81
2022/10/11 12:43:50;;;;;;;3.88;3.28;;;20.40;99.90;;;;;;5026752;28;20052;-81
2022/10/11 12:46:28;;;;;;;2.95;2.67;;;20.50;99.90;;;;;;5016184;28;20033;-81
2022/10/11 12:49:24;;;;;;;4.28;2.80;;;20.60;99.90;;;;;;5011139;28;20526;-81
2022/10/11 12:52:15;;;;;;;3.30;2.83;;;20.70;99.90;;;;;;4989541;28;20162;-81
2022/10/11 12:55:08;;;;;;;2.72;2.38;;;20.90;99.90;;;;;;4988318;28;20125;-81
2022/10/11 12:58:11;;;;;;;2.70;2.40;;;21.00;99.90;;;;;;4989151;28;20557;-81
2022/10/11 13:00:40;;;;;;;2.80;2.15;;;21.10;99.90;;;;;;4989006;28;20570;-81
2022/10/11 13:03:25;;;;;;;2.42;2.22;;;21.10;99.90;;;;;;4989465;28;20042;-81
2022/10/11 13:05:55;;;;;;;4.55;2.78;;;20.90;99.90;;;;;;4989244;28;20510;-81
2022/10/11 13:08:33;;;;;;;5.05;2.83;;;20.80;99.90;;;;;;4988846;28;20033;-81
2022/10/11 13:11:05;;;;;;;4.13;2.38;;;21.00;99.90;;;;;;4972417;28;20019;-81
2022/10/11 13:13:53;;;;;;;2.40;2.30;;;21.10;99.90;;;;;;4969747;28;20033;-81
2022/10/11 13:16:22;;;;;;;2.33;2.10;;;21.10;99.90;;;;;;4971509;28;20037;-81